sensor_id;sensor_type;location;lat;lon;timestamp;temperature;humidity
76967;DHT22;65904;52.278;20.972;2023-06-22T00:00:19;21.10;99.90
76967;DHT22;65904;52.278;20.972;2023-06-22T00:03:27;21.10;99.90
76967;DHT22;65904;52.278;20.972;2023-06-22T00:06:13;21.00;99.90
76967;DHT22;65904;52.278;20.972;2023-06-22T00:08:59;21.00;99.90
76967;DHT22;65904;52.278;20.972;2023-06-22T00:11:45;21.00;99.90
76967;DHT22;65904;52.278;20.972;2023-06-22T00:14:31;20.90;99.90
76967;DHT22;65904;52.278;20.972;2023-06-22T00:17:17;21.00;99.90
76967;DHT22;65904;52.278;20.972;2023-06-22T00:20:06;21.00;99.90
76967;DHT22;65904;52.278;20.972;2023-06-22T00:22:54;21.00;99.90
76967;DHT22;65904;52.278;20.972;2023-06-22T00:25:40;21.00;99.90
76967;DHT22;65904;52.278;20.972;2023-06-22T00:28:26;20.90;99.90
76967;DHT22;65904;52.278;20.972;2023-06-22T00:31:13;20.90;99.90
76967;DHT22;65904;52.278;20.972;2023-06-22T00:34:00;20.90;99.90
76967;DHT22;65904;52.278;20.972;2023-06-22T00:36:47;20.90;99.90
76967;DHT22;65904;52.278;20.972;2023-06-22T00:39:34;20.90;99.90
76967;DHT22;65904;52.278;20.972;2023-06-22T00:42:19;20.90;99.90
76967;DHT22;65904;52.278;20.972;2023-06-22T00:45:06;20.90;99.90
76967;DHT22;65904;52.278;20.972;2023-06-22T00:47:55;20.90;99.90
76967;DHT22;65904;52.278;20.972;2023-06-22T00:50:43;20.80;99.90
76967;DHT22;65904;52.278;20.972;2023-06-22T00:53:31;20.70;99.90
76967;DHT22;65904;52.278;20.972;2023-06-22T00:56:20;20.60;99.90
76967;DHT22;65904;52.278;20.972;2023-06-22T00:59:10;20.50;99.90
76967;DHT22;65904;52.278;20.972;2023-06-22T01:01:57;20.60;99.90
76967;DHT22;65904;52.278;20.972;2023-06-22T01:04:45;20.60;99.90
76967;DHT22;65904;52.278;20.972;2023-06-22T01:07:34;20.60;99.90
76967;DHT22;65904;52.278;20.972;2023-06-22T01:10:27;20.60;99.90
76967;DHT22;65904;52.278;20.972;2023-06-22T01:13:22;20.60;99.90
76967;DHT22;65904;52.278;20.972;2023-06-22T01:16:14;20.60;99.90
76967;DHT22;65904;52.278;20.972;2023-06-22T01:19:09;20.60;99.90
76967;DHT22;65904;52.278;20.972;2023-06-22T01:21:59;20.50;99.90
76967;DHT22;65904;52.278;20.972;2023-06-22T01:24:57;20.50;99.90
76967;DHT22;65904;52.278;20.972;2023-06-22T01:27:56;20.50;99.90
76967;DHT22;65904;52.278;20.972;2023-06-22T01:30:49;20.40;99.90
76967;DHT22;65904;52.278;20.972;2023-06-22T01:33:38;20.40;99.90
76967;DHT22;65904;52.278;20.972;2023-06-22T01:36:25;20.30;99.90
76967;DHT22;65904;52.278;20.972;2023-06-22T01:39:12;20.30;99.90
76967;DHT22;65904;52.278;20.972;2023-06-22T01:41:59;20.20;99.90
76967;DHT22;65904;52.278;20.972;2023-06-22T01:44:46;20.20;99.90
76967;DHT22;65904;52.278;20.972;2023-06-22T01:47:34;20.20;99.90
76967;DHT22;65904;52.278;20.972;2023-06-22T01:50:21;20.20;99.90
76967;DHT22;65904;52.278;20.972;2023-06-22T01:53:07;20.30;99.90
76967;DHT22;65904;52.278;20.972;2023-06-22T01:55:53;20.20;99.90
76967;DHT22;65904;52.278;20.972;2023-06-22T01:58:47;20.20;99.90
76967;DHT22;65904;52.278;20.972;2023-06-22T02:01:39;20.20;99.90
76967;DHT22;65904;52.278;20.972;2023-06-22T02:04:34;20.30;99.90
76967;DHT22;65904;52.278;20.972;2023-06-22T02:07:23;20.20;99.90
76967;DHT22;65904;52.278;20.972;2023-06-22T02:10:14;20.30;99.90
76967;DHT22;65904;52.278;20.972;2023-06-22T02:13:04;20.30;99.90
76967;DHT22;65904;52.278;20.972;2023-06-22T02:15:51;20.30;99.90
76967;DHT22;65904;52.278;20.972;2023-06-22T02:18:38;20.30;99.90
76967;DHT22;65904;52.278;20.972;2023-06-22T02:21:27;20.20;99.90
76967;DHT22;65904;52.278;20.972;2023-06-22T02:24:13;20.20;99.90
76967;DHT22;65904;52.278;20.972;2023-06-22T02:26:59;20.20;99.90
76967;DHT22;65904;52.278;20.972;2023-06-22T02:29:46;20.10;99.90
76967;DHT22;65904;52.278;20.972;2023-06-22T02:32:32;20.10;99.90
76967;DHT22;65904;52.278;20.972;2023-06-22T02:35:19;20.10;99.90
76967;DHT22;65904;52.278;20.972;2023-06-22T02:38:06;20.10;99.90
76967;DHT22;65904;52.278;20.972;2023-06-22T02:40:52;20.10;99.90
76967;DHT22;65904;52.278;20.972;2023-06-22T02:43:39;20.00;99.90
76967;DHT22;65904;52.278;20.972;2023-06-22T02:46:25;20.00;99.90
76967;DHT22;65904;52.278;20.972;2023-06-22T02:49:11;20.10;99.90
76967;DHT22;65904;52.278;20.972;2023-06-22T02:51:58;20.10;99.90
76967;DHT22;65904;52.278;20.972;2023-06-22T02:54:46;20.10;99.90
76967;DHT22;65904;52.278;20.972;2023-06-22T02:57:33;20.00;99.90
76967;DHT22;65904;52.278;20.972;2023-06-22T03:00:20;20.00;99.90
76967;DHT22;65904;52.278;20.972;2023-06-22T03:03:07;20.00;99.90
76967;DHT22;65904;52.278;20.972;2023-06-22T03:05:53;20.00;99.90
76967;DHT22;65904;52.278;20.972;2023-06-22T03:08:42;20.00;99.90
76967;DHT22;65904;52.278;20.972;2023-06-22T03:11:30;20.00;99.90
76967;DHT22;65904;52.278;20.972;2023-06-22T03:14:17;20.10;99.90
76967;DHT22;65904;52.278;20.972;2023-06-22T03:17:04;20.00;99.90
76967;DHT22;65904;52.278;20.972;2023-06-22T03:19:50;20.00;99.90
76967;DHT22;65904;52.278;20.972;2023-06-22T03:22:36;20.10;99.90
76967;DHT22;65904;52.278;20.972;2023-06-22T03:25:24;20.10;99.90
76967;DHT22;65904;52.278;20.972;2023-06-22T03:28:11;20.10;99.90
76967;DHT22;65904;52.278;20.972;2023-06-22T03:30:58;20.10;99.90
76967;DHT22;65904;52.278;20.972;2023-06-22T03:33:44;20.10;99.90
76967;DHT22;65904;52.278;20.972;2023-06-22T03:36:30;20.10;99.90
76967;DHT22;65904;52.278;20.972;2023-06-22T03:39:16;20.10;99.90
76967;DHT22;65904;52.278;20.972;2023-06-22T03:42:02;20.10;99.90
76967;DHT22;65904;52.278;20.972;2023-06-22T03:44:50;20.20;99.90
76967;DHT22;65904;52.278;20.972;2023-06-22T03:47:36;20.20;99.90
76967;DHT22;65904;52.278;20.972;2023-06-22T03:50:22;20.20;99.90
76967;DHT22;65904;52.278;20.972;2023-06-22T03:53:07;20.20;99.90
76967;DHT22;65904;52.278;20.972;2023-06-22T03:55:54;20.20;99.90
76967;DHT22;65904;52.278;20.972;2023-06-22T03:58:40;20.30;99.90
76967;DHT22;65904;52.278;20.972;2023-06-22T04:01:29;20.50;99.90
76967;DHT22;65904;52.278;20.972;2023-06-22T04:04:15;20.50;99.90
76967;DHT22;65904;52.278;20.972;2023-06-22T04:07:01;20.60;99.90
76967;DHT22;65904;52.278;20.972;2023-06-22T04:09:48;20.60;99.90
76967;DHT22;65904;52.278;20.972;2023-06-22T04:12:34;20.70;99.90
76967;DHT22;65904;52.278;20.972;2023-06-22T04:15:20;20.60;99.90
76967;DHT22;65904;52.278;20.972;2023-06-22T04:18:07;20.70;99.90
76967;DHT22;65904;52.278;20.972;2023-06-22T04:20:53;20.60;99.90
76967;DHT22;65904;52.278;20.972;2023-06-22T04:23:39;20.60;99.90
76967;DHT22;65904;52.278;20.972;2023-06-22T04:26:25;20.70;99.90
76967;DHT22;65904;52.278;20.972;2023-06-22T04:29:12;20.70;99.90
76967;DHT22;65904;52.278;20.972;2023-06-22T04:31:58;20.80;99.90
76967;DHT22;65904;52.278;20.972;2023-06-22T04:34:49;20.70;99.90
76967;DHT22;65904;52.278;20.972;2023-06-22T04:37:37;20.80;99.90
76967;DHT22;65904;52.278;20.972;2023-06-22T04:40:24;20.90;99.90
76967;DHT22;65904;52.278;20.972;2023-06-22T04:43:10;20.90;99.90
76967;DHT22;65904;52.278;20.972;2023-06-22T04:45:56;20.90;99.90
76967;DHT22;65904;52.278;20.972;2023-06-22T04:48:47;20.90;99.90
76967;DHT22;65904;52.278;20.972;2023-06-22T04:51:39;20.90;99.90
76967;DHT22;65904;52.278;20.972;2023-06-22T04:54:25;21.00;99.90
76967;DHT22;65904;52.278;20.972;2023-06-22T04:57:11;21.00;99.90
76967;DHT22;65904;52.278;20.972;2023-06-22T04:59:57;21.00;99.90
76967;DHT22;65904;52.278;20.972;2023-06-22T05:02:47;21.10;99.90
76967;DHT22;65904;52.278;20.972;2023-06-22T05:05:33;21.10;99.90
76967;DHT22;65904;52.278;20.972;2023-06-22T05:08:21;21.10;99.90
76967;DHT22;65904;52.278;20.972;2023-06-22T05:11:13;21.10;99.90
76967;DHT22;65904;52.278;20.972;2023-06-22T05:13:59;21.20;99.90
76967;DHT22;65904;52.278;20.972;2023-06-22T05:16:45;21.20;99.90
76967;DHT22;65904;52.278;20.972;2023-06-22T05:19:32;21.30;99.90
76967;DHT22;65904;52.278;20.972;2023-06-22T05:22:18;21.30;99.90
76967;DHT22;65904;52.278;20.972;2023-06-22T05:25:07;21.40;99.90
76967;DHT22;65904;52.278;20.972;2023-06-22T05:27:54;21.40;99.90
76967;DHT22;65904;52.278;20.972;2023-06-22T05:30:40;21.50;99.90
76967;DHT22;65904;52.278;20.972;2023-06-22T05:33:26;21.50;99.90
76967;DHT22;65904;52.278;20.972;2023-06-22T05:36:12;21.60;99.90
76967;DHT22;65904;52.278;20.972;2023-06-22T05:38:58;21.70;99.90
76967;DHT22;65904;52.278;20.972;2023-06-22T05:41:46;21.70;99.90
76967;DHT22;65904;52.278;20.972;2023-06-22T05:44:33;21.80;99.90
76967;DHT22;65904;52.278;20.972;2023-06-22T05:47:19;21.70;99.90
76967;DHT22;65904;52.278;20.972;2023-06-22T05:50:06;21.60;99.90
76967;DHT22;65904;52.278;20.972;2023-06-22T05:52:53;21.60;99.90
76967;DHT22;65904;52.278;20.972;2023-06-22T05:55:39;21.60;99.90
76967;DHT22;65904;52.278;20.972;2023-06-22T05:58:27;21.60;99.90
76967;DHT22;65904;52.278;20.972;2023-06-22T06:01:13;21.60;99.90
76967;DHT22;65904;52.278;20.972;2023-06-22T06:04:01;21.70;99.90
76967;DHT22;65904;52.278;20.972;2023-06-22T06:06:47;21.80;99.90
76967;DHT22;65904;52.278;20.972;2023-06-22T06:09:33;22.00;99.90
76967;DHT22;65904;52.278;20.972;2023-06-22T06:12:19;22.00;99.90
76967;DHT22;65904;52.278;20.972;2023-06-22T06:15:07;22.10;99.90
76967;DHT22;65904;52.278;20.972;2023-06-22T06:17:54;22.10;99.90
76967;DHT22;65904;52.278;20.972;2023-06-22T06:20:40;22.20;99.90
76967;DHT22;65904;52.278;20.972;2023-06-22T06:23:26;22.10;99.90
76967;DHT22;65904;52.278;20.972;2023-06-22T06:26:12;22.10;99.90
76967;DHT22;65904;52.278;20.972;2023-06-22T06:29:01;22.20;99.90
76967;DHT22;65904;52.278;20.972;2023-06-22T06:31:49;22.20;99.90
76967;DHT22;65904;52.278;20.972;2023-06-22T06:34:35;22.30;99.90
76967;DHT22;65904;52.278;20.972;2023-06-22T06:37:21;22.60;99.90
76967;DHT22;65904;52.278;20.972;2023-06-22T06:40:08;22.70;99.90
76967;DHT22;65904;52.278;20.972;2023-06-22T06:42:55;23.00;99.90
76967;DHT22;65904;52.278;20.972;2023-06-22T06:45:41;23.20;99.90
76967;DHT22;65904;52.278;20.972;2023-06-22T06:48:29;23.20;99.90
76967;DHT22;65904;52.278;20.972;2023-06-22T06:51:15;23.10;99.90
76967;DHT22;65904;52.278;20.972;2023-06-22T06:54:01;23.10;99.90
76967;DHT22;65904;52.278;20.972;2023-06-22T06:56:48;23.20;99.90
76967;DHT22;65904;52.278;20.972;2023-06-22T06:59:35;23.40;99.90
76967;DHT22;65904;52.278;20.972;2023-06-22T07:02:20;23.50;99.90
76967;DHT22;65904;52.278;20.972;2023-06-22T07:05:09;23.50;99.90
76967;DHT22;65904;52.278;20.972;2023-06-22T07:07:55;23.40;99.90
76967;DHT22;65904;52.278;20.972;2023-06-22T07:10:42;23.40;99.90
76967;DHT22;65904;52.278;20.972;2023-06-22T07:13:28;23.40;99.90
76967;DHT22;65904;52.278;20.972;2023-06-22T07:16:15;23.50;99.90
76967;DHT22;65904;52.278;20.972;2023-06-22T07:19:01;23.60;99.90
76967;DHT22;65904;52.278;20.972;2023-06-22T07:21:48;24.00;99.90
76967;DHT22;65904;52.278;20.972;2023-06-22T07:24:34;24.20;99.90
76967;DHT22;65904;52.278;20.972;2023-06-22T07:27:20;24.20;99.90
76967;DHT22;65904;52.278;20.972;2023-06-22T07:30:07;24.30;99.90
76967;DHT22;65904;52.278;20.972;2023-06-22T07:32:54;24.20;99.90
76967;DHT22;65904;52.278;20.972;2023-06-22T07:35:40;24.20;99.90
76967;DHT22;65904;52.278;20.972;2023-06-22T07:38:27;24.00;99.90
76967;DHT22;65904;52.278;20.972;2023-06-22T07:41:13;24.00;99.90
76967;DHT22;65904;52.278;20.972;2023-06-22T07:44:01;24.10;99.90
76967;DHT22;65904;52.278;20.972;2023-06-22T07:46:47;24.20;99.90
76967;DHT22;65904;52.278;20.972;2023-06-22T07:49:33;24.30;99.90
76967;DHT22;65904;52.278;20.972;2023-06-22T07:52:19;24.50;99.90
76967;DHT22;65904;52.278;20.972;2023-06-22T07:55:08;24.60;99.90
76967;DHT22;65904;52.278;20.972;2023-06-22T07:57:54;24.50;99.90
76967;DHT22;65904;52.278;20.972;2023-06-22T08:00:40;24.40;99.90
76967;DHT22;65904;52.278;20.972;2023-06-22T08:03:26;24.40;99.90
76967;DHT22;65904;52.278;20.972;2023-06-22T08:06:12;24.40;99.90
76967;DHT22;65904;52.278;20.972;2023-06-22T08:08:59;24.30;99.90
76967;DHT22;65904;52.278;20.972;2023-06-22T08:11:47;24.40;99.90
76967;DHT22;65904;52.278;20.972;2023-06-22T08:14:37;24.60;99.90
76967;DHT22;65904;52.278;20.972;2023-06-22T08:17:24;24.70;99.90
76967;DHT22;65904;52.278;20.972;2023-06-22T08:20:11;24.70;99.90
76967;DHT22;65904;52.278;20.972;2023-06-22T08:22:57;24.70;99.90
76967;DHT22;65904;52.278;20.972;2023-06-22T08:25:50;24.80;99.90
76967;DHT22;65904;52.278;20.972;2023-06-22T08:28:37;25.00;99.90
76967;DHT22;65904;52.278;20.972;2023-06-22T08:31:23;25.00;99.90
76967;DHT22;65904;52.278;20.972;2023-06-22T08:34:09;25.00;99.90
76967;DHT22;65904;52.278;20.972;2023-06-22T08:36:55;25.20;99.90
76967;DHT22;65904;52.278;20.972;2023-06-22T08:39:41;25.20;99.90
76967;DHT22;65904;52.278;20.972;2023-06-22T08:42:27;25.30;99.90
76967;DHT22;65904;52.278;20.972;2023-06-22T08:45:16;25.30;99.90
76967;DHT22;65904;52.278;20.972;2023-06-22T08:48:02;25.30;99.90
76967;DHT22;65904;52.278;20.972;2023-06-22T08:50:49;25.30;99.90
76967;DHT22;65904;52.278;20.972;2023-06-22T08:53:35;25.30;99.90
76967;DHT22;65904;52.278;20.972;2023-06-22T08:56:21;25.50;99.90
76967;DHT22;65904;52.278;20.972;2023-06-22T08:59:07;25.50;99.90
76967;DHT22;65904;52.278;20.972;2023-06-22T09:01:55;25.60;99.90
76967;DHT22;65904;52.278;20.972;2023-06-22T09:04:41;25.90;99.90
76967;DHT22;65904;52.278;20.972;2023-06-22T09:07:27;26.00;99.90
76967;DHT22;65904;52.278;20.972;2023-06-22T09:10:13;26.20;99.90
76967;DHT22;65904;52.278;20.972;2023-06-22T09:13:00;26.20;99.90
76967;DHT22;65904;52.278;20.972;2023-06-22T09:15:46;26.20;99.90
76967;DHT22;65904;52.278;20.972;2023-06-22T09:18:33;26.30;99.90
76967;DHT22;65904;52.278;20.972;2023-06-22T09:21:21;26.50;99.90
76967;DHT22;65904;52.278;20.972;2023-06-22T09:24:07;26.60;99.90
76967;DHT22;65904;52.278;20.972;2023-06-22T09:26:53;26.90;99.90
76967;DHT22;65904;52.278;20.972;2023-06-22T09:29:39;27.20;99.90
76967;DHT22;65904;52.278;20.972;2023-06-22T09:32:25;27.40;99.90
76967;DHT22;65904;52.278;20.972;2023-06-22T09:35:13;27.30;99.90
76967;DHT22;65904;52.278;20.972;2023-06-22T09:37:59;27.40;99.90
76967;DHT22;65904;52.278;20.972;2023-06-22T09:40:45;27.60;99.90
76967;DHT22;65904;52.278;20.972;2023-06-22T09:43:32;27.90;99.90
76967;DHT22;65904;52.278;20.972;2023-06-22T09:46:20;27.90;99.90
76967;DHT22;65904;52.278;20.972;2023-06-22T09:49:09;28.20;99.90
76967;DHT22;65904;52.278;20.972;2023-06-22T09:51:57;28.40;99.90
76967;DHT22;65904;52.278;20.972;2023-06-22T09:54:43;28.50;99.90
76967;DHT22;65904;52.278;20.972;2023-06-22T09:57:29;28.90;99.90
76967;DHT22;65904;52.278;20.972;2023-06-22T10:00:17;29.00;99.90
76967;DHT22;65904;52.278;20.972;2023-06-22T10:03:03;29.20;99.90
76967;DHT22;65904;52.278;20.972;2023-06-22T10:05:49;29.10;99.90
76967;DHT22;65904;52.278;20.972;2023-06-22T10:08:37;29.00;99.90
76967;DHT22;65904;52.278;20.972;2023-06-22T10:11:23;29.10;99.90
76967;DHT22;65904;52.278;20.972;2023-06-22T10:14:14;29.40;99.90
76967;DHT22;65904;52.278;20.972;2023-06-22T10:17:02;29.50;99.90
76967;DHT22;65904;52.278;20.972;2023-06-22T10:19:48;29.60;99.90
76967;DHT22;65904;52.278;20.972;2023-06-22T10:22:34;29.80;99.90
76967;DHT22;65904;52.278;20.972;2023-06-22T10:25:22;29.90;99.90
76967;DHT22;65904;52.278;20.972;2023-06-22T10:28:08;30.20;99.90
76967;DHT22;65904;52.278;20.972;2023-06-22T10:30:54;30.00;99.90
76967;DHT22;65904;52.278;20.972;2023-06-22T10:33:40;29.70;99.70
76967;DHT22;65904;52.278;20.972;2023-06-22T10:36:29;29.80;99.90
76967;DHT22;65904;52.278;20.972;2023-06-22T10:39:15;29.80;98.40
76967;DHT22;65904;52.278;20.972;2023-06-22T10:42:03;29.80;99.10
76967;DHT22;65904;52.278;20.972;2023-06-22T10:44:49;30.00;99.90
76967;DHT22;65904;52.278;20.972;2023-06-22T10:47:36;30.30;99.40
76967;DHT22;65904;52.278;20.972;2023-06-22T10:50:22;30.30;98.20
76967;DHT22;65904;52.278;20.972;2023-06-22T10:53:09;30.30;99.20
76967;DHT22;65904;52.278;20.972;2023-06-22T10:55:55;30.30;97.70
76967;DHT22;65904;52.278;20.972;2023-06-22T10:58:44;30.30;99.10
76967;DHT22;65904;52.278;20.972;2023-06-22T11:01:30;30.40;98.10
76967;DHT22;65904;52.278;20.972;2023-06-22T11:04:18;30.60;98.30
76967;DHT22;65904;52.278;20.972;2023-06-22T11:07:05;30.80;97.00
76967;DHT22;65904;52.278;20.972;2023-06-22T11:09:51;30.80;96.10
76967;DHT22;65904;52.278;20.972;2023-06-22T11:12:37;30.80;95.40
76967;DHT22;65904;52.278;20.972;2023-06-22T11:15:25;30.90;95.10
76967;DHT22;65904;52.278;20.972;2023-06-22T11:18:10;31.20;96.00
76967;DHT22;65904;52.278;20.972;2023-06-22T11:20:57;31.10;95.30
76967;DHT22;65904;52.278;20.972;2023-06-22T11:23:43;31.50;95.20
76967;DHT22;65904;52.278;20.972;2023-06-22T11:26:29;32.10;93.80
76967;DHT22;65904;52.278;20.972;2023-06-22T11:29:16;32.10;91.30
76967;DHT22;65904;52.278;20.972;2023-06-22T11:32:05;31.60;90.90
76967;DHT22;65904;52.278;20.972;2023-06-22T11:34:52;31.90;92.10
76967;DHT22;65904;52.278;20.972;2023-06-22T11:37:38;32.60;92.00
76967;DHT22;65904;52.278;20.972;2023-06-22T11:40:24;32.80;89.50
76967;DHT22;65904;52.278;20.972;2023-06-22T11:43:10;33.00;89.60
76967;DHT22;65904;52.278;20.972;2023-06-22T11:45:56;33.10;87.90
76967;DHT22;65904;52.278;20.972;2023-06-22T11:48:44;33.80;88.40
76967;DHT22;65904;52.278;20.972;2023-06-22T11:51:30;34.10;85.80
76967;DHT22;65904;52.278;20.972;2023-06-22T11:54:16;33.90;78.50
76967;DHT22;65904;52.278;20.972;2023-06-22T11:57:02;34.10;81.70
76967;DHT22;65904;52.278;20.972;2023-06-22T11:59:49;34.10;81.70
76967;DHT22;65904;52.278;20.972;2023-06-22T12:02:35;34.30;80.10
76967;DHT22;65904;52.278;20.972;2023-06-22T12:05:23;34.80;79.10
76967;DHT22;65904;52.278;20.972;2023-06-22T12:08:09;35.80;77.40
76967;DHT22;65904;52.278;20.972;2023-06-22T12:10:55;35.70;75.50
76967;DHT22;65904;52.278;20.972;2023-06-22T12:13:41;35.30;76.30
76967;DHT22;65904;52.278;20.972;2023-06-22T12:16:27;35.70;73.20
76967;DHT22;65904;52.278;20.972;2023-06-22T12:19:13;35.80;68.40
76967;DHT22;65904;52.278;20.972;2023-06-22T12:22:01;35.70;67.10
76967;DHT22;65904;52.278;20.972;2023-06-22T12:24:47;36.20;66.60
76967;DHT22;65904;52.278;20.972;2023-06-22T12:27:33;35.90;66.50
76967;DHT22;65904;52.278;20.972;2023-06-22T12:30:19;36.10;65.70
76967;DHT22;65904;52.278;20.972;2023-06-22T12:33:05;36.90;64.80
76967;DHT22;65904;52.278;20.972;2023-06-22T12:35:51;38.70;62.90
76967;DHT22;65904;52.278;20.972;2023-06-22T12:38:39;38.80;60.30
76967;DHT22;65904;52.278;20.972;2023-06-22T12:41:25;38.00;59.50
76967;DHT22;65904;52.278;20.972;2023-06-22T12:44:11;38.10;58.10
76967;DHT22;65904;52.278;20.972;2023-06-22T12:46:57;37.40;57.50
76967;DHT22;65904;52.278;20.972;2023-06-22T12:49:43;38.90;57.20
76967;DHT22;65904;52.278;20.972;2023-06-22T12:52:30;39.90;55.50
76967;DHT22;65904;52.278;20.972;2023-06-22T12:55:18;38.60;54.50
76967;DHT22;65904;52.278;20.972;2023-06-22T12:58:04;38.20;56.20
76967;DHT22;65904;52.278;20.972;2023-06-22T13:00:50;38.10;55.40
76967;DHT22;65904;52.278;20.972;2023-06-22T13:03:35;38.60;55.00
76967;DHT22;65904;52.278;20.972;2023-06-22T13:06:22;37.50;53.90
76967;DHT22;65904;52.278;20.972;2023-06-22T13:09:09;38.40;54.00
76967;DHT22;65904;52.278;20.972;2023-06-22T13:11:57;38.90;52.80
76967;DHT22;65904;52.278;20.972;2023-06-22T13:14:43;40.20;50.80
76967;DHT22;65904;52.278;20.972;2023-06-22T13:17:31;40.20;50.20
76967;DHT22;65904;52.278;20.972;2023-06-22T13:20:17;40.40;51.40
76967;DHT22;65904;52.278;20.972;2023-06-22T13:23:03;39.70;50.50
76967;DHT22;65904;52.278;20.972;2023-06-22T13:25:49;39.80;49.40
76967;DHT22;65904;52.278;20.972;2023-06-22T13:28:37;40.00;48.10
76967;DHT22;65904;52.278;20.972;2023-06-22T13:31:23;39.80;48.20
76967;DHT22;65904;52.278;20.972;2023-06-22T13:34:10;40.10;49.10
76967;DHT22;65904;52.278;20.972;2023-06-22T13:36:56;40.30;50.20
76967;DHT22;65904;52.278;20.972;2023-06-22T13:39:42;40.00;50.90
76967;DHT22;65904;52.278;20.972;2023-06-22T13:42:28;39.70;52.10
76967;DHT22;65904;52.278;20.972;2023-06-22T13:45:16;39.80;52.20
76967;DHT22;65904;52.278;20.972;2023-06-22T13:48:04;40.40;51.40
76967;DHT22;65904;52.278;20.972;2023-06-22T13:50:50;40.20;52.40
76967;DHT22;65904;52.278;20.972;2023-06-22T13:53:35;38.50;53.00
76967;DHT22;65904;52.278;20.972;2023-06-22T13:56:21;37.80;54.30
76967;DHT22;65904;52.278;20.972;2023-06-22T13:59:07;38.70;52.10
76967;DHT22;65904;52.278;20.972;2023-06-22T14:01:56;39.90;52.80
76967;DHT22;65904;52.278;20.972;2023-06-22T14:04:42;39.90;52.20
76967;DHT22;65904;52.278;20.972;2023-06-22T14:07:28;40.40;50.80
76967;DHT22;65904;52.278;20.972;2023-06-22T14:10:14;39.80;51.50
76967;DHT22;65904;52.278;20.972;2023-06-22T14:13:00;40.00;50.60
76967;DHT22;65904;52.278;20.972;2023-06-22T14:15:45;40.00;49.60
76967;DHT22;65904;52.278;20.972;2023-06-22T14:18:34;40.80;49.20
76967;DHT22;65904;52.278;20.972;2023-06-22T14:21:20;41.00;48.30
76967;DHT22;65904;52.278;20.972;2023-06-22T14:24:07;40.80;48.90
76967;DHT22;65904;52.278;20.972;2023-06-22T14:26:54;41.70;47.90
76967;DHT22;65904;52.278;20.972;2023-06-22T14:29:40;41.30;47.80
76967;DHT22;65904;52.278;20.972;2023-06-22T14:32:28;41.20;47.60
76967;DHT22;65904;52.278;20.972;2023-06-22T14:35:17;40.40;49.10
76967;DHT22;65904;52.278;20.972;2023-06-22T14:38:03;41.10;48.20
76967;DHT22;65904;52.278;20.972;2023-06-22T14:40:50;40.20;48.00
76967;DHT22;65904;52.278;20.972;2023-06-22T14:43:36;39.30;49.00
76967;DHT22;65904;52.278;20.972;2023-06-22T14:46:22;39.10;48.90
76967;DHT22;65904;52.278;20.972;2023-06-22T14:49:08;38.60;49.70
76967;DHT22;65904;52.278;20.972;2023-06-22T14:51:56;38.70;48.10
76967;DHT22;65904;52.278;20.972;2023-06-22T14:54:42;39.00;48.00
76967;DHT22;65904;52.278;20.972;2023-06-22T14:57:28;38.70;48.80
76967;DHT22;65904;52.278;20.972;2023-06-22T15:00:15;38.40;48.50
76967;DHT22;65904;52.278;20.972;2023-06-22T15:03:01;39.10;49.70
76967;DHT22;65904;52.278;20.972;2023-06-22T15:05:50;39.80;48.00
76967;DHT22;65904;52.278;20.972;2023-06-22T15:08:38;39.40;47.50
76967;DHT22;65904;52.278;20.972;2023-06-22T15:11:25;38.40;47.40
76967;DHT22;65904;52.278;20.972;2023-06-22T15:14:13;36.80;49.40
76967;DHT22;65904;52.278;20.972;2023-06-22T15:16:59;36.50;49.80
76967;DHT22;65904;52.278;20.972;2023-06-22T15:19:46;36.70;50.10
76967;DHT22;65904;52.278;20.972;2023-06-22T15:22:32;37.20;49.10
76967;DHT22;65904;52.278;20.972;2023-06-22T15:25:19;37.20;48.70
76967;DHT22;65904;52.278;20.972;2023-06-22T15:28:06;38.00;49.00
76967;DHT22;65904;52.278;20.972;2023-06-22T15:30:52;38.70;48.50
76967;DHT22;65904;52.278;20.972;2023-06-22T15:33:38;38.90;48.20
76967;DHT22;65904;52.278;20.972;2023-06-22T15:36:24;38.70;47.80
76967;DHT22;65904;52.278;20.972;2023-06-22T15:39:10;38.40;48.50
76967;DHT22;65904;52.278;20.972;2023-06-22T15:41:58;37.70;47.10
76967;DHT22;65904;52.278;20.972;2023-06-22T15:44:45;38.50;46.80
76967;DHT22;65904;52.278;20.972;2023-06-22T15:47:31;37.80;47.70
76967;DHT22;65904;52.278;20.972;2023-06-22T15:50:17;37.20;48.20
76967;DHT22;65904;52.278;20.972;2023-06-22T15:53:04;36.00;48.20
76967;DHT22;65904;52.278;20.972;2023-06-22T15:55:49;35.50;48.70
76967;DHT22;65904;52.278;20.972;2023-06-22T15:58:38;35.20;49.10
76967;DHT22;65904;52.278;20.972;2023-06-22T16:01:25;34.80;50.10
76967;DHT22;65904;52.278;20.972;2023-06-22T16:04:11;35.70;49.30
76967;DHT22;65904;52.278;20.972;2023-06-22T16:06:57;36.30;48.40
76967;DHT22;65904;52.278;20.972;2023-06-22T16:09:43;36.60;47.90
76967;DHT22;65904;52.278;20.972;2023-06-22T16:12:29;37.10;46.70
76967;DHT22;65904;52.278;20.972;2023-06-22T16:15:17;36.90;47.30
76967;DHT22;65904;52.278;20.972;2023-06-22T16:18:03;35.20;48.90
76967;DHT22;65904;52.278;20.972;2023-06-22T16:20:49;35.10;50.20
76967;DHT22;65904;52.278;20.972;2023-06-22T16:23:35;34.90;51.50
76967;DHT22;65904;52.278;20.972;2023-06-22T16:26:22;34.20;51.30
76967;DHT22;65904;52.278;20.972;2023-06-22T16:29:08;34.20;51.80
76967;DHT22;65904;52.278;20.972;2023-06-22T16:31:56;33.90;52.10
76967;DHT22;65904;52.278;20.972;2023-06-22T16:34:42;33.40;51.40
76967;DHT22;65904;52.278;20.972;2023-06-22T16:37:30;33.10;52.70
76967;DHT22;65904;52.278;20.972;2023-06-22T16:40:16;33.20;52.80
76967;DHT22;65904;52.278;20.972;2023-06-22T16:43:05;32.80;53.80
76967;DHT22;65904;52.278;20.972;2023-06-22T16:45:51;32.60;54.90
76967;DHT22;65904;52.278;20.972;2023-06-22T16:48:38;32.60;54.40
76967;DHT22;65904;52.278;20.972;2023-06-22T16:51:25;32.50;54.40
76967;DHT22;65904;52.278;20.972;2023-06-22T16:54:12;32.00;55.40
76967;DHT22;65904;52.278;20.972;2023-06-22T16:56:59;31.60;56.50
76967;DHT22;65904;52.278;20.972;2023-06-22T16:59:47;31.70;57.70
76967;DHT22;65904;52.278;20.972;2023-06-22T17:02:33;31.50;56.60
76967;DHT22;65904;52.278;20.972;2023-06-22T17:05:22;31.40;57.40
76967;DHT22;65904;52.278;20.972;2023-06-22T17:08:10;31.00;57.60
76967;DHT22;65904;52.278;20.972;2023-06-22T17:10:58;30.70;57.70
76967;DHT22;65904;52.278;20.972;2023-06-22T17:13:45;30.50;57.50
76967;DHT22;65904;52.278;20.972;2023-06-22T17:16:35;30.20;57.50